createdAt,value
2018-03-30T00:00:55.143Z,9.50
2018-03-30T00:03:24.405Z,9.07
2018-03-30T00:05:53.601Z,8.03
2018-03-30T00:08:22.846Z,7.67
2018-03-30T00:10:54.818Z,10.67
2018-03-30T00:13:24.984Z,9.33
2018-03-30T00:15:54.778Z,11.27
2018-03-30T00:18:24.006Z,9.00
2018-03-30T00:20:53.977Z,8.43
2018-03-30T00:23:23.254Z,8.07
2018-03-30T00:25:52.502Z,7.13
2018-03-30T00:28:21.711Z,8.90
2018-03-30T00:30:51.696Z,8.20
2018-03-30T00:33:20.904Z,11.37
2018-03-30T00:35:50.094Z,8.60
2018-03-30T00:38:19.334Z,9.27
2018-03-30T00:40:48.732Z,9.43
2018-03-30T00:43:17.957Z,8.53
2018-03-30T00:45:47.158Z,9.33
2018-03-30T00:48:16.339Z,7.97
2018-03-30T00:50:46.305Z,10.30
2018-03-30T00:53:34.043Z,10.37
2018-03-30T00:56:04.051Z,8.60
2018-03-30T00:58:33.263Z,7.93
2018-03-30T01:01:03.262Z,8.43
2018-03-30T01:03:33.282Z,8.10
2018-03-30T01:06:02.508Z,8.93
2018-03-30T01:08:31.751Z,7.47
2018-03-30T01:11:00.962Z,8.17
2018-03-30T01:13:30.140Z,9.50
2018-03-30T01:15:59.406Z,8.20
2018-03-30T01:18:28.592Z,8.70
2018-03-30T01:20:57.809Z,6.63
2018-03-30T01:23:28.010Z,8.23
2018-03-30T01:25:57.987Z,7.23
2018-03-30T01:28:27.292Z,7.90
2018-03-30T01:30:56.622Z,7.93
2018-03-30T01:33:26.625Z,8.90
2018-03-30T01:35:56.609Z,8.73
2018-03-30T01:38:25.826Z,7.73
2018-03-30T01:40:55.067Z,7.63
2018-03-30T01:43:24.321Z,7.60
2018-03-30T01:45:53.519Z,12.10
2018-03-30T01:48:22.748Z,6.97
2018-03-30T01:50:52.732Z,6.40
2018-03-30T01:53:21.929Z,7.03
2018-03-30T01:55:51.148Z,6.20
2018-03-30T01:58:21.122Z,10.10
2018-03-30T02:00:50.322Z,6.43
2018-03-30T02:03:19.522Z,6.90
2018-03-30T02:05:49.518Z,14.87
2018-03-30T02:08:18.730Z,6.70
2018-03-30T02:10:48.698Z,7.40
2018-03-30T02:13:18.689Z,7.53
2018-03-30T02:15:47.872Z,7.03
2018-03-30T02:18:17.101Z,7.03
2018-03-30T02:20:46.335Z,8.93
2018-03-30T02:23:15.819Z,8.97
2018-03-30T02:25:45.152Z,9.87
2018-03-30T02:28:14.364Z,11.00
2018-03-30T02:30:43.601Z,8.00
2018-03-30T02:33:13.608Z,8.70
2018-03-30T02:35:42.825Z,7.53
2018-03-30T02:38:12.803Z,10.70
2018-03-30T02:40:42.004Z,7.03
2018-03-30T02:43:11.212Z,7.87
2018-03-30T02:45:40.428Z,8.97
2018-03-30T02:48:10.422Z,7.23
2018-03-30T02:50:40.404Z,8.53
2018-03-30T02:53:09.632Z,7.40
2018-03-30T02:55:38.869Z,6.67
2018-03-30T02:58:08.075Z,10.13
2018-03-30T03:00:37.345Z,8.37
2018-03-30T03:03:07.417Z,7.60
2018-03-30T03:05:36.672Z,9.73
2018-03-30T03:08:05.918Z,8.63
2018-03-30T03:10:35.209Z,6.90
2018-03-30T03:13:04.450Z,7.40
2018-03-30T03:15:33.627Z,7.33
2018-03-30T03:18:02.879Z,7.70
2018-03-30T03:20:32.076Z,9.77
2018-03-30T03:23:01.290Z,7.57
2018-03-30T03:25:30.612Z,8.60
2018-03-30T03:27:59.805Z,8.07
2018-03-30T03:30:29.012Z,8.77
2018-03-30T03:32:58.323Z,9.20
2018-03-30T03:35:27.543Z,11.77
2018-03-30T03:37:56.741Z,8.30
2018-03-30T03:40:26.716Z,7.00
2018-03-30T03:42:55.936Z,7.10
2018-03-30T03:45:25.167Z,7.23
2018-03-30T03:47:54.366Z,8.37
2018-03-30T03:50:23.602Z,7.77
2018-03-30T03:52:52.815Z,6.70
2018-03-30T03:55:22.024Z,7.07
2018-03-30T03:57:51.270Z,7.10
2018-03-30T04:00:20.509Z,7.90
2018-03-30T04:02:49.720Z,6.97
2018-03-30T04:05:19.708Z,8.63
2018-03-30T04:07:49.009Z,7.63
2018-03-30T04:10:18.312Z,6.30
2018-03-30T04:12:47.495Z,7.53
2018-03-30T04:15:16.711Z,7.07
2018-03-30T04:17:45.939Z,8.17
2018-03-30T04:20:15.897Z,6.50
2018-03-30T04:22:45.119Z,5.93
2018-03-30T04:25:14.344Z,7.43
2018-03-30T04:27:44.328Z,7.40
2018-03-30T04:30:13.770Z,5.50
2018-03-30T04:32:43.232Z,7.73
2018-03-30T04:35:12.447Z,7.27
2018-03-30T04:37:42.531Z,7.30
2018-03-30T04:40:11.751Z,5.30
2018-03-30T04:42:41.787Z,5.00
2018-03-30T04:45:10.979Z,6.90
2018-03-30T04:47:40.962Z,8.27
2018-03-30T04:50:10.927Z,7.20
2018-03-30T04:52:40.932Z,6.27
2018-03-30T04:55:10.162Z,6.40
2018-03-30T04:57:39.364Z,6.63
2018-03-30T05:00:08.590Z,6.53
2018-03-30T05:02:37.827Z,6.87
2018-03-30T05:05:07.818Z,12.43
2018-03-30T05:07:37.140Z,6.70
2018-03-30T05:10:07.122Z,9.63
2018-03-30T05:12:37.148Z,8.13
2018-03-30T05:15:06.409Z,6.30
2018-03-30T05:17:35.610Z,7.80
2018-03-30T05:20:04.844Z,10.73
2018-03-30T05:22:34.035Z,9.57
2018-03-30T05:25:03.243Z,8.00
2018-03-30T05:27:32.451Z,6.50
2018-03-30T05:30:02.779Z,11.23
2018-03-30T05:32:32.743Z,8.63
2018-03-30T05:35:02.005Z,8.27
2018-03-30T05:37:32.038Z,8.70
2018-03-30T05:40:01.297Z,10.33
2018-03-30T05:42:30.496Z,7.63
2018-03-30T05:44:59.746Z,8.03
2018-03-30T05:47:28.936Z,7.67
2018-03-30T05:49:58.155Z,9.27
2018-03-30T05:52:27.352Z,8.00
2018-03-30T05:54:57.367Z,11.57
2018-03-30T05:57:27.371Z,7.33
2018-03-30T05:59:56.612Z,7.57
2018-03-30T06:02:25.871Z,7.93
2018-03-30T06:04:55.103Z,7.90
2018-03-30T06:07:24.431Z,9.83
2018-03-30T06:09:54.394Z,7.17
2018-03-30T06:12:23.659Z,8.27
2018-03-30T06:14:52.944Z,6.37
2018-03-30T06:17:22.159Z,8.77
2018-03-30T06:19:52.178Z,6.63
2018-03-30T06:22:21.494Z,7.40
2018-03-30T06:24:50.759Z,8.57
2018-03-30T06:27:20.791Z,7.00
2018-03-30T06:29:50.034Z,9.43
2018-03-30T06:32:19.413Z,7.23
2018-03-30T06:34:48.561Z,9.47
2018-03-30T06:37:17.830Z,7.13
2018-03-30T06:39:47.014Z,7.90
2018-03-30T06:42:16.250Z,7.77
2018-03-30T06:44:45.446Z,7.50
2018-03-30T06:47:14.739Z,8.47
2018-03-30T06:49:43.953Z,10.80
2018-03-30T06:52:13.271Z,8.17
2018-03-30T06:54:43.380Z,10.27
2018-03-30T06:57:12.575Z,8.70
2018-03-30T06:59:42.584Z,7.90
2018-03-30T07:02:12.802Z,8.40
2018-03-30T07:04:42.880Z,7.43
2018-03-30T07:07:12.058Z,8.93
2018-03-30T07:09:41.274Z,8.60
2018-03-30T07:12:10.463Z,8.93
2018-03-30T07:14:39.688Z,8.40
2018-03-30T07:17:09.311Z,7.03
2018-03-30T07:19:38.539Z,10.33
2018-03-30T07:22:07.756Z,10.50
2018-03-30T07:24:37.214Z,8.20
2018-03-30T07:27:06.410Z,7.50
2018-03-30T07:29:35.620Z,8.67
2018-03-30T07:32:05.597Z,7.93
2018-03-30T07:34:34.821Z,9.00
2018-03-30T07:37:04.794Z,13.03
2018-03-30T07:39:34.039Z,7.20
2018-03-30T07:42:03.348Z,8.63
2018-03-30T07:44:33.638Z,7.13
2018-03-30T07:47:02.908Z,7.27
2018-03-30T07:49:32.107Z,10.37
2018-03-30T07:52:01.343Z,9.73
2018-03-30T07:54:30.589Z,9.53
2018-03-30T07:56:59.821Z,7.23
2018-03-30T07:59:29.034Z,9.17
2018-03-30T08:01:58.258Z,7.00
2018-03-30T08:04:28.219Z,6.47
2018-03-30T08:06:57.503Z,7.87
2018-03-30T08:09:26.702Z,6.00
2018-03-30T08:11:55.908Z,6.53
2018-03-30T08:14:25.430Z,5.67
2018-03-30T08:16:54.598Z,6.07
2018-03-30T08:19:23.802Z,9.97
2018-03-30T08:21:53.982Z,6.57
2018-03-30T08:24:23.958Z,6.77
2018-03-30T08:26:53.177Z,6.60
2018-03-30T08:29:23.240Z,6.20
2018-03-30T08:31:53.246Z,6.93
2018-03-30T08:34:23.230Z,4.80
2018-03-30T08:36:52.456Z,8.73
2018-03-30T08:39:21.670Z,5.30
2018-03-30T08:41:50.880Z,8.67
2018-03-30T08:44:20.150Z,5.80
2018-03-30T08:46:50.120Z,4.50
2018-03-30T08:49:19.408Z,4.43
2018-03-30T08:51:48.617Z,4.43
2018-03-30T08:54:18.139Z,3.60
2018-03-30T08:56:49.110Z,4.03
2018-03-30T08:59:19.095Z,4.37
2018-03-30T09:01:49.113Z,5.13
2018-03-30T09:04:18.357Z,4.40
2018-03-30T09:06:47.533Z,3.73
2018-03-30T09:09:16.764Z,4.90
2018-03-30T09:11:45.993Z,3.93
2018-03-30T09:16:50.510Z,4.23
2018-03-30T09:19:19.794Z,4.20
2018-03-30T09:21:49.001Z,3.50
2018-03-30T09:24:18.201Z,3.10
2018-03-30T09:26:47.440Z,4.07
2018-03-30T09:29:16.731Z,3.10
2018-03-30T09:31:46.742Z,3.40
2018-03-30T09:34:15.945Z,2.63
2018-03-30T09:36:45.199Z,2.97
2018-03-30T09:39:14.426Z,3.90
2018-03-30T09:41:43.662Z,5.90
2018-03-30T09:44:13.663Z,2.90
2018-03-30T09:46:42.922Z,3.67
2018-03-30T09:49:12.145Z,3.50
2018-03-30T09:51:41.402Z,3.13
2018-03-30T09:54:10.618Z,4.00
2018-03-30T09:56:39.862Z,3.80
2018-03-30T09:59:09.844Z,3.57
2018-03-30T10:01:39.219Z,5.50
2018-03-30T10:04:09.438Z,4.80
2018-03-30T10:06:38.699Z,2.50
2018-03-30T10:09:07.940Z,3.13
2018-03-30T10:11:37.147Z,4.67
2018-03-30T10:14:06.355Z,4.67
2018-03-30T10:16:35.579Z,2.90
2018-03-30T10:19:05.600Z,5.97
2018-03-30T10:21:35.597Z,4.30
2018-03-30T10:24:04.819Z,3.57
2018-03-30T10:26:34.839Z,3.50
2018-03-30T10:29:04.068Z,3.20
2018-03-30T10:31:33.299Z,7.33
2018-03-30T10:34:02.542Z,4.70
2018-03-30T10:36:31.779Z,4.20
2018-03-30T10:39:01.085Z,4.17
2018-03-30T10:41:30.338Z,5.23
2018-03-30T10:43:59.578Z,5.37
2018-03-30T10:46:28.833Z,4.40
2018-03-30T10:48:58.065Z,4.20
2018-03-30T10:51:27.612Z,4.73
2018-03-30T10:53:57.625Z,3.83
2018-03-30T10:56:26.839Z,3.47
2018-03-30T10:58:56.835Z,4.20
2018-03-30T11:01:26.810Z,3.63
2018-03-30T11:03:56.046Z,4.10
2018-03-30T11:06:26.080Z,3.80
2018-03-30T11:08:56.097Z,3.97
2018-03-30T11:11:26.086Z,3.63
2018-03-30T11:13:55.318Z,3.53
2018-03-30T11:16:24.552Z,5.20
2018-03-30T11:18:53.821Z,3.33
2018-03-30T11:21:23.055Z,4.10
2018-03-30T11:23:52.327Z,3.40
2018-03-30T11:26:21.556Z,3.90
2018-03-30T11:28:50.814Z,4.30
2018-03-30T11:31:20.077Z,4.13
2018-03-30T11:33:49.321Z,6.80
2018-03-30T11:36:18.603Z,3.93
2018-03-30T11:38:47.816Z,2.93
2018-03-30T11:41:17.086Z,4.03
2018-03-30T11:43:47.106Z,3.67
2018-03-30T11:46:16.313Z,3.87
2018-03-30T11:48:46.280Z,3.37
2018-03-30T11:51:15.531Z,4.00
2018-03-30T11:53:44.776Z,4.00
2018-03-30T11:56:14.002Z,4.43
2018-03-30T11:58:44.089Z,3.70
2018-03-30T12:01:14.115Z,3.30
2018-03-30T12:03:44.136Z,3.57
2018-03-30T12:06:13.377Z,5.43
2018-03-30T12:08:42.583Z,4.70
2018-03-30T12:11:11.806Z,4.30
2018-03-30T12:13:41.011Z,5.30
2018-03-30T12:16:10.237Z,4.57
2018-03-30T12:18:39.474Z,3.73
2018-03-30T12:21:08.690Z,4.97
2018-03-30T12:23:37.943Z,4.30
2018-03-30T12:26:07.926Z,3.80
2018-03-30T12:28:37.155Z,3.80
2018-03-30T12:31:06.353Z,3.80
2018-03-30T12:33:36.338Z,3.77
2018-03-30T12:36:05.552Z,4.00
2018-03-30T12:38:34.797Z,4.33
2018-03-30T12:41:04.081Z,4.70
2018-03-30T12:43:34.387Z,5.67
2018-03-30T12:46:04.890Z,5.43
2018-03-30T12:48:34.689Z,2.90
2018-03-30T12:51:05.078Z,4.80
2018-03-30T12:53:36.444Z,2.87
2018-03-30T12:56:05.645Z,3.80
2018-03-30T12:58:34.871Z,2.77
2018-03-30T13:01:04.074Z,3.63
2018-03-30T13:03:33.318Z,2.53
2018-03-30T13:06:02.529Z,4.93
2018-03-30T13:08:32.609Z,3.77
2018-03-30T13:11:02.600Z,4.90
2018-03-30T13:13:32.609Z,3.13
2018-03-30T13:16:01.850Z,2.50
2018-03-30T13:18:31.039Z,3.00
2018-03-30T13:21:01.004Z,3.10
2018-03-30T13:23:30.242Z,4.90
2018-03-30T13:26:00.306Z,2.80
2018-03-30T13:28:29.676Z,4.03
2018-03-30T13:30:58.919Z,3.90
2018-03-30T13:33:28.144Z,3.10
2018-03-30T13:35:57.393Z,2.57
2018-03-30T13:38:26.607Z,2.80
2018-03-30T13:40:55.872Z,2.57
2018-03-30T13:43:25.136Z,2.50
2018-03-30T13:45:54.397Z,2.80
2018-03-30T13:48:23.631Z,3.83
2018-03-30T13:51:10.895Z,3.10
2018-03-30T13:53:43.020Z,2.93
2018-03-30T13:56:12.992Z,2.70
2018-03-30T13:58:47.643Z,3.03
2018-03-30T14:01:31.206Z,2.87
2018-03-30T14:04:11.547Z,3.43
2018-03-30T14:06:44.194Z,2.53
2018-03-30T14:09:31.969Z,3.27
2018-03-30T14:12:04.471Z,2.90
2018-03-30T14:14:33.728Z,4.97
2018-03-30T14:30:50.307Z,3.50
2018-03-30T14:33:20.318Z,5.20
2018-03-30T14:35:58.887Z,3.77
2018-03-30T14:38:46.577Z,6.73
2018-03-30T14:41:16.586Z,6.77
2018-03-30T14:43:46.541Z,3.73
2018-03-30T14:46:23.960Z,5.03
2018-03-30T14:48:55.641Z,4.13
2018-03-30T14:51:36.469Z,4.60
2018-03-30T14:54:08.959Z,4.70
2018-03-30T14:56:49.958Z,5.03
2018-03-30T14:59:25.091Z,4.97
2018-03-30T15:02:04.931Z,4.77
2018-03-30T15:05:00.887Z,3.40
2018-03-30T15:07:30.765Z,5.20
2018-03-30T15:10:34.206Z,4.20
2018-03-30T15:13:08.907Z,6.97
2018-03-30T15:16:00.502Z,6.97
2018-03-30T15:18:34.740Z,4.87
2018-03-30T15:34:39.918Z,4.80
2018-03-30T15:37:16.576Z,4.20
2018-03-30T15:39:56.543Z,4.10
2018-03-30T15:42:35.924Z,5.80
2018-03-30T15:45:28.387Z,4.40
2018-03-30T15:47:57.657Z,5.20
2018-03-30T15:50:26.882Z,4.47
2018-03-30T15:52:56.093Z,3.87
2018-03-30T15:55:25.325Z,4.67
2018-03-30T15:57:54.550Z,4.20
2018-03-30T16:00:23.791Z,6.00
2018-03-30T16:02:53.885Z,3.13
2018-03-30T16:05:23.104Z,3.77
2018-03-30T16:07:52.306Z,3.80
2018-03-30T16:10:23.071Z,4.07
2018-03-30T16:12:53.265Z,3.40
2018-03-30T16:15:22.519Z,4.40
2018-03-30T16:17:51.730Z,5.43
2018-03-30T16:20:20.852Z,5.83
2018-03-30T16:22:49.292Z,5.17
2018-03-30T16:25:17.661Z,5.60
2018-03-30T16:27:46.099Z,4.47
2018-03-30T16:30:15.232Z,8.07
2018-03-30T16:32:43.643Z,4.13
2018-03-30T16:35:12.014Z,4.20
2018-03-30T16:37:40.368Z,4.43
2018-03-30T16:40:08.768Z,5.60
2018-03-30T16:42:37.182Z,4.10
2018-03-30T16:45:06.360Z,7.77
2018-03-30T16:47:34.730Z,4.27
2018-03-30T16:50:03.206Z,4.43
2018-03-30T16:52:31.543Z,6.90
2018-03-30T16:54:59.934Z,4.57
2018-03-30T16:57:28.301Z,3.63
2018-03-30T16:59:56.690Z,4.07
2018-03-30T17:02:25.047Z,4.10
2018-03-30T17:04:53.441Z,5.07
2018-03-30T17:07:21.778Z,5.10
2018-03-30T17:09:50.926Z,4.57
2018-03-30T17:12:19.300Z,4.20
2018-03-30T17:14:47.686Z,5.33
2018-03-30T17:17:16.091Z,5.10
2018-03-30T17:19:44.795Z,5.10
2018-03-30T17:22:13.940Z,5.73
2018-03-30T17:24:42.331Z,7.73
2018-03-30T17:27:10.763Z,4.53
2018-03-30T17:29:39.135Z,5.00
2018-03-30T17:32:08.294Z,5.30
2018-03-30T17:34:36.640Z,4.80
2018-03-30T17:37:05.015Z,5.20
2018-03-30T17:39:33.452Z,5.37
2018-03-30T17:42:01.817Z,6.10
2018-03-30T17:44:30.180Z,8.00
2018-03-30T17:46:58.594Z,6.60
2018-03-30T17:49:26.935Z,4.83
2018-03-30T17:51:55.291Z,4.63
2018-03-30T17:54:23.670Z,4.60
2018-03-30T17:56:52.066Z,4.30
2018-03-30T17:59:20.426Z,4.00
2018-03-30T18:01:48.854Z,5.07
2018-03-30T18:04:18.024Z,7.70
2018-03-30T18:06:46.429Z,8.10
2018-03-30T18:09:15.586Z,4.30
2018-03-30T18:11:43.975Z,5.10
2018-03-30T18:14:12.383Z,3.80
2018-03-30T18:16:41.544Z,3.37
2018-03-30T18:19:09.917Z,4.83
2018-03-30T18:21:38.292Z,4.07
2018-03-30T18:24:06.695Z,7.13
2018-03-30T18:26:35.063Z,5.47
2018-03-30T18:29:03.448Z,11.67
2018-03-30T18:31:31.829Z,5.20
2018-03-30T18:34:00.209Z,5.07
2018-03-30T18:36:28.577Z,4.17
2018-03-30T18:38:56.988Z,4.23
2018-03-30T18:41:26.115Z,4.20
2018-03-30T18:43:54.562Z,5.90
2018-03-30T18:46:22.913Z,6.00
2018-03-30T18:48:51.279Z,6.90
2018-03-30T18:51:19.703Z,4.90
2018-03-30T18:53:48.066Z,5.20
2018-03-30T18:56:16.467Z,9.50
2018-03-30T18:58:45.123Z,4.67
2018-03-30T19:01:14.326Z,3.83
2018-03-30T19:03:42.666Z,5.50
2018-03-30T19:06:11.868Z,4.17
2018-03-30T19:08:40.500Z,4.30
2018-03-30T19:11:08.883Z,4.50
2018-03-30T19:13:37.253Z,4.30
2018-03-30T19:16:05.642Z,6.30
2018-03-30T19:18:34.006Z,4.87
2018-03-30T19:21:03.153Z,3.97
2018-03-30T19:23:32.262Z,3.67
2018-03-30T19:26:00.632Z,4.33
2018-03-30T19:28:29.011Z,3.30
2018-03-30T19:30:57.398Z,3.77
2018-03-30T19:33:25.791Z,3.53
2018-03-30T19:35:54.180Z,3.50
2018-03-30T19:38:23.310Z,7.07
2018-03-30T19:40:51.654Z,2.97
2018-03-30T19:43:20.795Z,2.50
2018-03-30T19:45:49.177Z,6.10
2018-03-30T19:48:17.518Z,5.27
2018-03-30T19:50:46.642Z,3.20
2018-03-30T19:53:15.014Z,3.70
2018-03-30T19:55:43.378Z,3.77
2018-03-30T19:58:11.764Z,4.80
2018-03-30T20:00:40.131Z,5.20
2018-03-30T20:03:08.519Z,6.27
2018-03-30T20:05:36.902Z,6.20
2018-03-30T20:08:05.299Z,5.03
2018-03-30T20:10:33.667Z,5.90
2018-03-30T20:13:02.062Z,4.13
2018-03-30T20:15:30.489Z,3.67
2018-03-30T20:17:59.643Z,3.60
2018-03-30T20:20:28.018Z,7.80
2018-03-30T20:22:56.404Z,5.37
2018-03-30T20:25:24.774Z,4.57
2018-03-30T20:27:53.123Z,4.00
2018-03-30T20:30:21.536Z,4.60
2018-03-30T20:32:49.910Z,4.50
2018-03-30T20:35:18.287Z,4.03
2018-03-30T20:37:46.703Z,4.40
2018-03-30T20:40:15.072Z,5.13
2018-03-30T20:42:44.225Z,4.50
2018-03-30T20:45:12.628Z,4.27
2018-03-30T20:47:40.982Z,4.50
2018-03-30T20:50:09.380Z,3.80
2018-03-30T20:52:37.751Z,5.03
2018-03-30T20:55:06.886Z,3.70
2018-03-30T20:57:36.039Z,4.63
2018-03-30T21:00:04.440Z,6.13
2018-03-30T21:02:32.807Z,10.20
2018-03-30T21:05:01.184Z,8.67
2018-03-30T21:07:29.564Z,12.50
2018-03-30T21:09:57.960Z,8.30
2018-03-30T21:12:26.336Z,7.20
2018-03-30T21:14:54.711Z,7.23
2018-03-30T21:17:23.063Z,6.87
2018-03-30T21:19:51.411Z,8.77
2018-03-30T21:22:19.800Z,7.93
2018-03-30T21:24:48.434Z,6.97
2018-03-30T21:27:17.619Z,6.80
2018-03-30T21:29:46.739Z,6.13
2018-03-30T21:32:15.124Z,5.73
2018-03-30T21:34:44.244Z,5.50
2018-03-30T21:37:12.668Z,7.03
2018-03-30T21:39:41.802Z,4.93
2018-03-30T21:42:10.945Z,4.63
2018-03-30T21:44:39.297Z,7.67
2018-03-30T21:47:08.520Z,5.77
2018-03-30T21:49:36.995Z,5.90
2018-03-30T21:52:05.351Z,4.77
2018-03-30T21:54:33.691Z,4.80
2018-03-30T21:57:02.818Z,5.27
2018-03-30T21:59:31.163Z,7.33
2018-03-30T22:02:00.303Z,4.03
2018-03-30T22:04:28.674Z,3.87
2018-03-30T22:06:57.050Z,6.80
2018-03-30T22:09:25.412Z,3.70
2018-03-30T22:11:53.750Z,4.50
2018-03-30T22:14:22.179Z,4.80
2018-03-30T22:16:50.558Z,3.53
2018-03-30T22:19:18.930Z,4.97
2018-03-30T22:21:47.592Z,3.30
2018-03-30T22:24:16.715Z,6.10
2018-03-30T22:26:45.052Z,5.30
2018-03-30T22:29:13.438Z,3.60
2018-03-30T22:31:42.557Z,3.30
2018-03-30T22:34:10.923Z,3.87
2018-03-30T22:36:39.322Z,2.70
2018-03-30T22:39:07.684Z,2.43
2018-03-30T22:41:36.842Z,3.90
2018-03-30T22:44:05.198Z,2.83
2018-03-30T22:46:33.537Z,3.10
2018-03-30T22:49:01.927Z,3.10
2018-03-30T22:51:30.274Z,3.20
2018-03-30T22:53:58.595Z,4.80
2018-03-30T22:56:26.962Z,3.43
2018-03-30T22:58:55.353Z,3.27
2018-03-30T23:01:23.712Z,7.30
2018-03-30T23:03:52.840Z,3.93
2018-03-30T23:06:21.626Z,4.80
2018-03-30T23:08:50.754Z,4.40
2018-03-30T23:11:19.891Z,4.17
2018-03-30T23:13:48.222Z,4.60
2018-03-30T23:16:16.606Z,4.00
2018-03-30T23:18:45.719Z,3.27
2018-03-30T23:21:14.847Z,4.23
2018-03-30T23:23:43.207Z,3.70
2018-03-30T23:26:11.578Z,4.40
2018-03-30T23:28:39.909Z,4.27
2018-03-30T23:31:08.371Z,3.50
2018-03-30T23:33:36.694Z,3.13
2018-03-30T23:36:06.003Z,3.13
2018-03-30T23:38:34.374Z,3.30
2018-03-30T23:41:03.495Z,4.00
2018-03-30T23:43:31.878Z,3.77
2018-03-30T23:46:00.614Z,3.10
2018-03-30T23:48:28.946Z,3.90
2018-03-30T23:50:57.313Z,4.30
2018-03-30T23:53:25.673Z,4.20
2018-03-30T23:55:54.029Z,3.37
2018-03-30T23:58:22.386Z,4.93
